Time;durP1;ratioP1;P1;durP2;ratioP2;P2;SDS_P1;SDS_P2;PMS_P1;PMS_P2;Temp;Humidity;BMP_temperature;BMP_pressure;BME280_temperature;BME280_humidity;BME280_pressure;Samples;Min_cycle;Max_cycle;Signal;HPM_P1;HPM_P2
2023/08/01 00:01:02;;;;;;;;;;;26.60;99.90;;;;;;5134780;27;19915;-74
2023/08/01 00:03:28;;;;;;;;;;;26.60;99.90;;;;;;5134865;27;20386;-74
2023/08/01 00:05:54;;;;;;;;;;;26.60;99.90;;;;;;5134827;27;19903;-74
2023/08/01 00:08:21;;;;;;;;;;;26.60;99.90;;;;;;5134784;27;19910;-74
2023/08/01 00:10:46;;;;;;;;;;;26.60;99.90;;;;;;5135236;27;19912;-76
2023/08/01 00:13:12;;;;;;;;;;;26.50;99.90;;;;;;5135392;27;20274;-74
2023/08/01 00:15:38;;;;;;;;;;;26.60;99.90;;;;;;5134609;27;19909;-75
2023/08/01 00:18:04;;;;;;;;;;;26.50;99.90;;;;;;5134947;27;19903;-74
2023/08/01 00:20:30;;;;;;;;;;;26.60;99.90;;;;;;5134617;27;19952;-74
2023/08/01 00:22:56;;;;;;;;;;;26.60;99.90;;;;;;5134615;27;19972;-74
2023/08/01 00:25:22;;;;;;;;;;;26.60;99.90;;;;;;5133186;27;19950;-74
2023/08/01 00:27:47;;;;;;;;;;;26.50;99.90;;;;;;5134535;27;19949;-74
2023/08/01 00:30:13;;;;;;;;;;;26.50;99.90;;;;;;5134128;27;19904;-74
2023/08/01 00:32:39;;;;;;;;;;;26.50;99.90;;;;;;5134360;27;20018;-74
2023/08/01 00:35:05;;;;;;;;;;;26.50;99.90;;;;;;5134207;27;19969;-75
2023/08/01 00:37:31;;;;;;;;;;;26.50;99.90;;;;;;5134445;27;19994;-74
2023/08/01 00:39:56;;;;;;;;;;;26.50;99.90;;;;;;5134147;27;20016;-74
2023/08/01 00:42:22;;;;;;;;;;;26.50;99.90;;;;;;5134726;27;19903;-74
2023/08/01 00:44:49;;;;;;;;;;;26.50;99.90;;;;;;5134072;27;19903;-75
2023/08/01 00:47:14;;;;;;;;;;;26.50;99.90;;;;;;5134312;27;19903;-74
2023/08/01 00:49:40;;;;;;;;;;;26.40;99.90;;;;;;5132871;27;19993;-75
2023/08/01 00:52:07;;;;;;;;;;;26.40;99.90;;;;;;5133990;27;19911;-75
2023/08/01 00:54:36;;;;;;;;;;;26.40;99.90;;;;;;5134614;27;19999;-74
2023/08/01 00:57:05;;;;;;;;;;;26.40;99.90;;;;;;5134093;27;19957;-74
2023/08/01 00:59:31;;;;;;;;;;;26.50;99.90;;;;;;5133940;27;19972;-74
2023/08/01 01:01:58;;;;;;;;;;;26.50;99.90;;;;;;5134063;27;19903;-74
2023/08/01 01:04:24;;;;;;;;;;;26.50;99.90;;;;;;5133867;27;19947;-75
2023/08/01 01:06:57;;;;;;;;;;;26.60;99.90;;;;;;5133805;27;19931;-74
2023/08/01 01:09:23;;;;;;;;;;;26.60;99.90;;;;;;5133921;27;20015;-74
2023/08/01 01:11:49;;;;;;;;;;;26.60;99.90;;;;;;5133824;27;19935;-75
2023/08/01 01:14:14;;;;;;;;;;;26.60;99.90;;;;;;5133787;27;19903;-74
2023/08/01 01:16:40;;;;;;;;;;;26.60;99.90;;;;;;5134360;27;19947;-75
2023/08/01 01:19:09;;;;;;;;;;;26.50;99.90;;;;;;5133777;28;19904;-75
2023/08/01 01:21:36;;;;;;;;;;;26.50;99.90;;;;;;5133801;27;19904;-75
2023/08/01 01:24:03;;;;;;;;;;;26.40;99.90;;;;;;5134076;27;19910;-74
2023/08/01 01:26:29;;;;;;;;;;;26.40;99.90;;;;;;5132439;28;20349;-74
2023/08/01 01:28:55;;;;;;;;;;;26.50;99.90;;;;;;5134003;27;19911;-74
2023/08/01 01:31:21;;;;;;;;;;;26.50;99.90;;;;;;5132141;28;19919;-75
2023/08/01 01:33:47;;;;;;;;;;;26.50;99.90;;;;;;5134197;27;19941;-74
2023/08/01 01:36:13;;;;;;;;;;;26.60;99.90;;;;;;5133611;27;20010;-76
2023/08/01 01:38:39;;;;;;;;;;;26.60;99.90;;;;;;5133684;28;19993;-74
2023/08/01 01:41:04;;;;;;;;;;;26.50;99.90;;;;;;5133595;28;19911;-74
2023/08/01 01:43:30;;;;;;;;;;;26.30;99.90;;;;;;5134053;28;19908;-74
2023/08/01 01:45:56;;;;;;;;;;;26.10;99.90;;;;;;5133348;27;19904;-75
2023/08/01 01:48:24;;;;;;;;;;;26.00;99.90;;;;;;5133858;28;19914;-74
2023/08/01 01:50:50;;;;;;;;;;;26.00;99.90;;;;;;5132205;28;20386;-74
2023/08/01 01:53:16;;;;;;;;;;;25.80;99.90;;;;;;5133432;28;19923;-74
2023/08/01 01:55:42;;;;;;;;;;;25.70;99.90;;;;;;5132104;28;19956;-74
2023/08/01 01:58:08;;;;;;;;;;;25.70;99.90;;;;;;5133388;27;20002;-75
2023/08/01 02:00:34;;;;;;;;;;;25.80;99.90;;;;;;5133374;27;19951;-75
2023/08/01 02:03:02;;;;;;;;;;;25.90;99.90;;;;;;5133675;27;20366;-74
2023/08/01 02:05:28;;;;;;;;;;;25.90;99.90;;;;;;5133315;27;20263;-74
2023/08/01 02:07:54;;;;;;;;;;;25.90;99.90;;;;;;5133470;27;20000;-76
2023/08/01 02:10:20;;;;;;;;;;;26.00;99.90;;;;;;5131889;28;20379;-74
2023/08/01 02:12:46;;;;;;;;;;;26.00;99.90;;;;;;5133191;28;19904;-74
2023/08/01 02:15:16;;;;;;;;;;;26.00;99.90;;;;;;5134727;27;19911;-75
2023/08/01 02:17:42;;;;;;;;;;;26.00;99.90;;;;;;5137037;27;19903;-75
2023/08/01 02:20:08;;;;;;;;;;;26.10;99.90;;;;;;5137020;27;19910;-74
2023/08/01 02:22:33;;;;;;;;;;;26.20;99.90;;;;;;5136934;27;19907;-74
2023/08/01 02:24:59;;;;;;;;;;;26.20;99.90;;;;;;5136974;27;20378;-74
2023/08/01 02:27:25;;;;;;;;;;;26.20;99.90;;;;;;5137116;27;19904;-76
2023/08/01 02:29:51;;;;;;;;;;;26.20;99.90;;;;;;5136757;27;19910;-74
2023/08/01 02:32:17;;;;;;;;;;;26.20;99.90;;;;;;5136626;27;19926;-74
2023/08/01 02:34:43;;;;;;;;;;;26.20;99.90;;;;;;5136967;27;19963;-74
2023/08/01 02:37:08;;;;;;;;;;;26.30;99.90;;;;;;5136721;27;19903;-75
2023/08/01 02:39:35;;;;;;;;;;;26.30;99.90;;;;;;5135644;27;19904;-75
2023/08/01 02:42:01;;;;;;;;;;;26.20;99.90;;;;;;5137125;27;19949;-74
2023/08/01 02:44:26;;;;;;;;;;;26.20;99.90;;;;;;5136447;27;19903;-75
2023/08/01 02:46:52;;;;;;;;;;;26.20;99.90;;;;;;5137029;27;19911;-74
2023/08/01 02:49:18;;;;;;;;;;;26.20;99.90;;;;;;5136492;27;19903;-74
2023/08/01 02:51:44;;;;;;;;;;;26.20;99.90;;;;;;5136293;27;19911;-73
2023/08/01 02:54:09;;;;;;;;;;;26.20;99.90;;;;;;5135063;27;19914;-74
2023/08/01 02:56:40;;;;;;;;;;;26.20;99.90;;;;;;5136331;27;20305;-74
2023/08/01 02:59:08;;;;;;;;;;;26.20;99.90;;;;;;5136587;27;19903;-75
2023/08/01 03:01:37;;;;;;;;;;;26.20;99.90;;;;;;5136005;27;20003;-74
2023/08/01 03:04:04;;;;;;;;;;;26.20;99.90;;;;;;5136629;27;19911;-75
2023/08/01 03:06:30;;;;;;;;;;;26.30;99.90;;;;;;5136107;27;19903;-74
2023/08/01 03:08:56;;;;;;;;;;;26.30;99.90;;;;;;5136091;27;19904;-74
2023/08/01 03:11:22;;;;;;;;;;;26.30;99.90;;;;;;5135942;27;19911;-74
2023/08/01 03:13:48;;;;;;;;;;;26.30;99.90;;;;;;5136391;27;20149;-75
2023/08/01 03:16:14;;;;;;;;;;;26.30;99.90;;;;;;5135727;27;19910;-74
2023/08/01 03:18:40;;;;;;;;;;;26.20;99.90;;;;;;5136039;27;19908;-74
2023/08/01 03:21:06;;;;;;;;;;;26.30;99.90;;;;;;5135934;27;19948;-77
2023/08/01 03:23:31;;;;;;;;;;;26.40;99.90;;;;;;5135820;27;19907;-75
2023/08/01 03:25:57;;;;;;;;;;;26.30;99.90;;;;;;5134936;27;19904;-75
2023/08/01 03:28:23;;;;;;;;;;;26.10;99.90;;;;;;5135976;27;19907;-75
2023/08/01 03:30:50;;;;;;;;;;;25.90;99.90;;;;;;5135588;27;19918;-75
2023/08/01 03:33:16;;;;;;;;;;;25.80;99.90;;;;;;5136164;27;19926;-75
2023/08/01 03:35:42;;;;;;;;;;;25.80;99.90;;;;;;5135401;27;20367;-75
2023/08/01 03:38:07;;;;;;;;;;;25.80;99.90;;;;;;5135841;27;19911;-74
2023/08/01 03:40:33;;;;;;;;;;;25.70;99.90;;;;;;5135486;27;20335;-75
2023/08/01 03:42:59;;;;;;;;;;;25.80;99.90;;;;;;5135488;27;19910;-75
2023/08/01 03:45:25;;;;;;;;;;;25.70;99.90;;;;;;5135254;27;19910;-75
2023/08/01 03:47:51;;;;;;;;;;;25.40;99.90;;;;;;5135261;27;19904;-75
2023/08/01 03:50:16;;;;;;;;;;;25.40;99.90;;;;;;5135291;27;20373;-75
2023/08/01 03:52:42;;;;;;;;;;;25.40;99.90;;;;;;5135148;27;19911;-74
2023/08/01 03:55:08;;;;;;;;;;;25.40;99.90;;;;;;5135622;27;19910;-74
2023/08/01 03:57:34;;;;;;;;;;;25.50;99.90;;;;;;5135093;27;20351;-75
2023/08/01 04:00:00;;;;;;;;;;;25.40;99.90;;;;;;5135278;27;19998;-75
2023/08/01 04:02:26;;;;;;;;;;;25.30;99.90;;;;;;5135204;27;19903;-75
2023/08/01 04:04:53;;;;;;;;;;;25.20;99.90;;;;;;5134976;27;20017;-75
2023/08/01 04:07:18;;;;;;;;;;;25.10;99.90;;;;;;5134955;27;19911;-75
2023/08/01 04:09:44;;;;;;;;;;;25.00;99.90;;;;;;5135170;27;19903;-75
2023/08/01 04:12:10;;;;;;;;;;;25.00;99.90;;;;;;5133500;27;19922;-75
2023/08/01 04:14:36;;;;;;;;;;;25.10;99.90;;;;;;5133215;27;19903;-74
2023/08/01 04:17:02;;;;;;;;;;;25.20;99.90;;;;;;5133331;27;19963;-75
2023/08/01 04:19:28;;;;;;;;;;;25.20;99.90;;;;;;5134746;27;19926;-74
2023/08/01 04:21:53;;;;;;;;;;;25.30;99.90;;;;;;5134550;27;19903;-75
2023/08/01 04:24:19;;;;;;;;;;;25.10;99.90;;;;;;5135041;27;20271;-75
2023/08/01 04:26:45;;;;;;;;;;;25.10;99.90;;;;;;5134593;27;19907;-74
2023/08/01 04:29:15;;;;;;;;;;;25.10;99.90;;;;;;5134411;27;20002;-75
2023/08/01 04:31:41;;;;;;;;;;;25.10;99.90;;;;;;5134153;27;20359;-75
2023/08/01 04:34:06;;;;;;;;;;;25.10;99.90;;;;;;5134683;27;19983;-74
2023/08/01 04:36:32;;;;;;;;;;;25.10;99.90;;;;;;5134715;27;19954;-74
2023/08/01 04:38:58;;;;;;;;;;;25.00;99.90;;;;;;5132661;27;19950;-74
2023/08/01 04:41:24;;;;;;;;;;;25.00;99.90;;;;;;5134733;27;19904;-74
2023/08/01 04:43:49;;;;;;;;;;;25.10;99.90;;;;;;5132885;27;19903;-74
2023/08/01 04:46:15;;;;;;;;;;;25.10;99.90;;;;;;5134096;27;19903;-73
2023/08/01 04:48:41;;;;;;;;;;;25.10;99.90;;;;;;5133996;27;19903;-74
2023/08/01 04:51:07;;;;;;;;;;;25.10;99.90;;;;;;5133782;27;20025;-74
2023/08/01 04:53:33;;;;;;;;;;;25.20;99.90;;;;;;5134024;27;20293;-74
2023/08/01 04:55:59;;;;;;;;;;;25.30;99.90;;;;;;5134010;27;19903;-75
2023/08/01 04:58:24;;;;;;;;;;;25.40;99.90;;;;;;5134115;27;19922;-75
2023/08/01 05:00:51;;;;;;;;;;;25.50;99.90;;;;;;5132361;27;19907;-73
2023/08/01 05:03:16;;;;;;;;;;;25.60;99.90;;;;;;5133961;27;20209;-74
2023/08/01 05:05:42;;;;;;;;;;;25.70;99.90;;;;;;5133875;27;19910;-75
2023/08/01 05:08:08;;;;;;;;;;;25.80;99.90;;;;;;5134275;27;19910;-74
2023/08/01 05:10:34;;;;;;;;;;;25.90;99.90;;;;;;5133739;27;19903;-74
2023/08/01 05:13:00;;;;;;;;;;;25.90;99.90;;;;;;5133771;27;19904;-74
2023/08/01 05:15:25;;;;;;;;;;;25.80;99.90;;;;;;5133941;27;19903;-75
2023/08/01 05:17:52;;;;;;;;;;;25.80;99.90;;;;;;5133744;27;19903;-75
2023/08/01 05:20:18;;;;;;;;;;;26.10;99.90;;;;;;5133880;27;19983;-75
2023/08/01 05:22:44;;;;;;;;;;;26.40;99.90;;;;;;5133553;28;19949;-75
2023/08/01 05:25:10;;;;;;;;;;;27.00;99.90;;;;;;5133853;28;19903;-75
2023/08/01 05:27:35;;;;;;;;;;;28.60;99.90;;;;;;5131794;28;19910;-74
2023/08/01 05:30:01;;;;;;;;;;;30.50;99.90;;;;;;5133188;28;19964;-74
2023/08/01 05:32:27;;;;;;;;;;;32.20;99.90;;;;;;5133249;27;19917;-76
2023/08/01 05:34:53;;;;;;;;;;;33.60;98.30;;;;;;5133272;28;20252;-74
2023/08/01 05:37:19;;;;;;;;;;;34.70;96.30;;;;;;5133398;28;19957;-75
2023/08/01 05:39:44;;;;;;;;;;;36.20;94.30;;;;;;5132945;27;19908;-74
2023/08/01 05:42:10;;;;;;;;;;;37.90;92.30;;;;;;5131825;28;19911;-74
2023/08/01 05:44:36;;;;;;;;;;;38.00;90.70;;;;;;5133606;27;19904;-75
2023/08/01 05:47:02;;;;;;;;;;;37.20;90.80;;;;;;5133085;28;20355;-74
2023/08/01 05:49:29;;;;;;;;;;;37.80;90.00;;;;;;5134221;27;19903;-74
2023/08/01 05:51:55;;;;;;;;;;;37.60;88.60;;;;;;5137309;27;20012;-74
2023/08/01 05:54:21;;;;;;;;;;;37.50;90.10;;;;;;5137536;27;19939;-74
2023/08/01 05:56:47;;;;;;;;;;;39.50;87.70;;;;;;5137447;27;19910;-74
2023/08/01 05:59:13;;;;;;;;;;;39.80;84.90;;;;;;5137048;27;19915;-74
2023/08/01 06:01:39;;;;;;;;;;;41.10;81.80;;;;;;5136883;27;19946;-74
2023/08/01 06:04:04;;;;;;;;;;;41.70;79.30;;;;;;5136898;27;19903;-74
2023/08/01 06:06:30;;;;;;;;;;;42.00;77.50;;;;;;5137192;27;19914;-76
2023/08/01 06:08:56;;;;;;;;;;;42.90;75.80;;;;;;5135758;27;19910;-75
2023/08/01 06:11:22;;;;;;;;;;;41.90;73.80;;;;;;5137413;27;19930;-76
2023/08/01 06:13:48;;;;;;;;;;;40.70;74.40;;;;;;5137284;27;19903;-76
2023/08/01 06:16:13;;;;;;;;;;;40.00;74.50;;;;;;5136910;27;19990;-76
2023/08/01 06:18:39;;;;;;;;;;;39.60;75.00;;;;;;5137257;27;19960;-76
2023/08/01 06:21:05;;;;;;;;;;;39.40;75.40;;;;;;5137152;27;19903;-76
2023/08/01 06:23:31;;;;;;;;;;;39.80;75.70;;;;;;5136715;27;19914;-75
2023/08/01 06:25:57;;;;;;;;;;;41.00;73.50;;;;;;5137263;27;19904;-74
2023/08/01 06:28:22;;;;;;;;;;;42.40;73.20;;;;;;5136864;27;20313;-76
2023/08/01 06:30:48;;;;;;;;;;;43.00;71.70;;;;;;5136981;27;19910;-76
2023/08/01 06:33:14;;;;;;;;;;;41.30;72.10;;;;;;5136520;27;19904;-75
2023/08/01 06:35:40;;;;;;;;;;;40.10;74.50;;;;;;5136383;27;19922;-75
2023/08/01 06:38:05;;;;;;;;;;;40.70;73.40;;;;;;5135121;27;20340;-74
2023/08/01 06:40:31;;;;;;;;;;;41.70;72.50;;;;;;5134827;27;19998;-75
2023/08/01 06:42:57;;;;;;;;;;;42.40;71.40;;;;;;5134979;27;19903;-74
2023/08/01 06:45:23;;;;;;;;;;;42.80;72.10;;;;;;5134660;27;19904;-74
2023/08/01 06:47:49;;;;;;;;;;;43.40;69.10;;;;;;5136351;27;19907;-75
2023/08/01 06:50:15;;;;;;;;;;;43.30;68.50;;;;;;5136737;27;20022;-75
2023/08/01 06:52:40;;;;;;;;;;;43.60;68.40;;;;;;5134626;27;19960;-75
2023/08/01 06:55:06;;;;;;;;;;;43.10;68.20;;;;;;5136159;27;20275;-75
2023/08/01 06:57:32;;;;;;;;;;;42.70;67.70;;;;;;5136140;27;19910;-75
2023/08/01 06:59:58;;;;;;;;;;;42.80;69.70;;;;;;5135907;27;20334;-75
2023/08/01 07:02:25;;;;;;;;;;;43.20;69.70;;;;;;5136263;27;19904;-74
2023/08/01 07:04:51;;;;;;;;;;;43.00;67.90;;;;;;5136479;27;19960;-75
2023/08/01 07:07:16;;;;;;;;;;;43.00;69.00;;;;;;5136297;27;19994;-75
2023/08/01 07:09:42;;;;;;;;;;;43.60;67.30;;;;;;5135678;27;19941;-74
2023/08/01 07:12:08;;;;;;;;;;;43.90;66.40;;;;;;5135714;27;20274;-75
2023/08/01 07:14:34;;;;;;;;;;;42.60;67.70;;;;;;5134421;27;19917;-74
2023/08/01 07:17:00;;;;;;;;;;;42.30;68.70;;;;;;5135670;27;19903;-75
2023/08/01 07:19:26;;;;;;;;;;;43.40;68.60;;;;;;5135913;27;19910;-73
2023/08/01 07:21:51;;;;;;;;;;;42.30;71.10;;;;;;5134153;27;19935;-75
2023/08/01 07:24:17;;;;;;;;;;;41.60;72.90;;;;;;5135692;27;19911;-75
2023/08/01 07:26:43;;;;;;;;;;;42.00;74.90;;;;;;5135599;27;19903;-73
2023/08/01 07:29:10;;;;;;;;;;;41.70;79.10;;;;;;5135471;27;19922;-75
2023/08/01 07:31:36;;;;;;;;;;;40.70;82.10;;;;;;5135166;27;20024;-74
2023/08/01 07:34:02;;;;;;;;;;;39.20;86.00;;;;;;5135390;27;20359;-74
2023/08/01 07:36:28;;;;;;;;;;;38.60;88.10;;;;;;5134074;27;19998;-75
2023/08/01 07:38:56;;;;;;;;;;;38.20;89.80;;;;;;5133894;27;20118;-74
2023/08/01 07:41:21;;;;;;;;;;;37.90;90.50;;;;;;5135229;27;19907;-74
2023/08/01 07:43:48;;;;;;;;;;;37.20;91.70;;;;;;5135054;27;19903;-76
2023/08/01 07:46:14;;;;;;;;;;;37.00;91.80;;;;;;5135048;27;19942;-74
2023/08/01 07:48:40;;;;;;;;;;;36.70;92.40;;;;;;5135239;27;19910;-75
2023/08/01 07:51:07;;;;;;;;;;;36.10;93.30;;;;;;5133690;27;19911;-75
2023/08/01 07:53:34;;;;;;;;;;;35.40;94.40;;;;;;5134985;27;19907;-75
2023/08/01 07:56:02;;;;;;;;;;;35.30;94.50;;;;;;5133628;27;20347;-76
2023/08/01 07:58:28;;;;;;;;;;;35.70;94.90;;;;;;5135036;27;20286;-75
2023/08/01 08:00:54;;;;;;;;;;;35.50;95.20;;;;;;5135165;27;19908;-75
2023/08/01 08:03:22;;;;;;;;;;;36.00;95.00;;;;;;5135170;27;19911;-75
2023/08/01 08:05:48;;;;;;;;;;;36.00;94.00;;;;;;5135426;27;19968;-76
2023/08/01 08:08:14;;;;;;;;;;;35.90;94.60;;;;;;5134915;27;19907;-75
2023/08/01 08:10:40;;;;;;;;;;;35.00;96.90;;;;;;5135095;27;19963;-75
2023/08/01 08:13:06;;;;;;;;;;;35.10;99.00;;;;;;5134455;27;20342;-76
2023/08/01 08:15:34;;;;;;;;;;;35.30;99.90;;;;;;5133226;27;19915;-75
2023/08/01 08:18:01;;;;;;;;;;;35.50;99.90;;;;;;5134503;27;19903;-76
2023/08/01 08:20:27;;;;;;;;;;;35.40;99.90;;;;;;5133075;27;19911;-74
2023/08/01 08:22:52;;;;;;;;;;;35.20;99.90;;;;;;5134486;27;19903;-75
2023/08/01 08:25:18;;;;;;;;;;;34.80;99.90;;;;;;5134936;27;20362;-76
2023/08/01 08:27:44;;;;;;;;;;;35.00;99.90;;;;;;5134493;27;19935;-74
2023/08/01 08:30:10;;;;;;;;;;;34.90;99.90;;;;;;5134228;27;20343;-76
2023/08/01 08:32:36;;;;;;;;;;;34.80;99.90;;;;;;5134520;27;20017;-75
2023/08/01 08:35:02;;;;;;;;;;;34.70;99.90;;;;;;5132652;27;19915;-75
2023/08/01 08:37:28;;;;;;;;;;;34.60;99.90;;;;;;5132678;27;19927;-76
2023/08/01 08:39:54;;;;;;;;;;;35.00;99.90;;;;;;5134881;27;20347;-75
2023/08/01 08:42:20;;;;;;;;;;;34.50;99.90;;;;;;5134155;27;20054;-76
2023/08/01 08:44:49;;;;;;;;;;;35.10;99.90;;;;;;5132732;27;20002;-76
2023/08/01 08:47:16;;;;;;;;;;;34.90;99.90;;;;;;5134049;27;20001;-76
2023/08/01 08:49:43;;;;;;;;;;;34.90;99.90;;;;;;5132808;27;20369;-76
2023/08/01 08:52:09;;;;;;;;;;;35.20;99.90;;;;;;5132502;27;19911;-76
2023/08/01 08:54:35;;;;;;;;;;;35.40;99.90;;;;;;5134597;27;19994;-75
2023/08/01 08:57:01;;;;;;;;;;;35.40;99.90;;;;;;5132587;27;19908;-76
2023/08/01 08:59:29;;;;;;;;;;;35.40;99.90;;;;;;5132480;27;20324;-74
2023/08/01 09:01:55;;;;;;;;;;;35.30;99.90;;;;;;5133710;27;19904;-74
2023/08/01 09:04:21;;;;;;;;;;;35.00;99.90;;;;;;5133827;27;19907;-74
2023/08/01 09:06:49;;;;;;;;;;;34.80;99.90;;;;;;5134328;27;19911;-76
2023/08/01 09:09:15;;;;;;;;;;;35.10;99.90;;;;;;5133915;27;20320;-75
2023/08/01 09:11:44;;;;;;;;;;;35.10;99.90;;;;;;5132453;27;19922;-76
2023/08/01 09:14:09;;;;;;;;;;;34.70;99.90;;;;;;5133895;27;19946;-75
2023/08/01 09:16:35;;;;;;;;;;;34.90;99.90;;;;;;5133920;27;20018;-75
2023/08/01 09:19:02;;;;;;;;;;;34.40;99.90;;;;;;5133853;28;19914;-75
2023/08/01 09:21:34;;;;;;;;;;;34.10;99.90;;;;;;5134245;27;19994;-75
2023/08/01 09:24:10;;;;;;;;;;;34.10;99.90;;;;;;5135096;27;19997;-75
2023/08/01 09:26:36;;;;;;;;;;;34.20;99.90;;;;;;5137823;27;19994;-75
2023/08/01 09:29:02;;;;;;;;;;;34.30;99.90;;;;;;5137910;27;19939;-76
2023/08/01 09:31:33;;;;;;;;;;;34.30;99.90;;;;;;5137927;27;19959;-75
2023/08/01 09:34:00;;;;;;;;;;;34.20;99.90;;;;;;5138531;27;20278;-75
2023/08/01 09:36:36;;;;;;;;;;;34.20;99.90;;;;;;5138309;27;20339;-78
2023/08/01 09:39:03;;;;;;;;;;;33.60;99.90;;;;;;5137992;27;20212;-75
2023/08/01 09:41:30;;;;;;;;;;;33.40;99.90;;;;;;5137811;27;19969;-75
2023/08/01 09:43:55;;;;;;;;;;;33.40;99.90;;;;;;5138003;27;19903;-74
2023/08/01 09:46:21;;;;;;;;;;;33.40;99.90;;;;;;5137561;27;19968;-74
2023/08/01 09:48:47;;;;;;;;;;;33.40;99.90;;;;;;5137520;27;19918;-74
2023/08/01 09:51:14;;;;;;;;;;;33.00;99.90;;;;;;5137573;27;19918;-75
2023/08/01 09:53:50;;;;;;;;;;;33.20;99.90;;;;;;5137851;27;19903;-75
2023/08/01 09:56:18;;;;;;;;;;;33.40;99.90;;;;;;5137467;27;19910;-75
2023/08/01 09:58:45;;;;;;;;;;;33.20;99.90;;;;;;5137393;27;19950;-75
2023/08/01 10:01:11;;;;;;;;;;;33.30;99.90;;;;;;5136032;27;19982;-75
2023/08/01 10:03:36;;;;;;;;;;;33.50;99.90;;;;;;5137908;27;20347;-76
2023/08/01 10:06:02;;;;;;;;;;;33.60;99.90;;;;;;5137482;27;20377;-75
2023/08/01 10:08:29;;;;;;;;;;;33.80;99.90;;;;;;5135623;27;19953;-75
2023/08/01 10:10:56;;;;;;;;;;;33.80;99.90;;;;;;5135668;27;19910;-73
2023/08/01 10:13:24;;;;;;;;;;;33.90;99.90;;;;;;5135804;27;19997;-75
2023/08/01 10:15:51;;;;;;;;;;;33.90;99.90;;;;;;5136838;27;19904;-76
2023/08/01 10:18:17;;;;;;;;;;;33.90;99.90;;;;;;5136800;27;19926;-75
2023/08/01 10:20:44;;;;;;;;;;;33.90;99.90;;;;;;5136922;27;19903;-75
2023/08/01 10:23:10;;;;;;;;;;;34.10;99.90;;;;;;5136960;27;20001;-75
2023/08/01 10:25:36;;;;;;;;;;;33.90;99.90;;;;;;5135761;27;19950;-75
2023/08/01 10:28:08;;;;;;;;;;;33.80;99.90;;;;;;5137002;27;20006;-75
2023/08/01 10:30:34;;;;;;;;;;;33.60;99.90;;;;;;5135373;27;19907;-75
2023/08/01 10:33:00;;;;;;;;;;;33.50;99.90;;;;;;5136841;27;19918;-75
2023/08/01 10:35:34;;;;;;;;;;;33.70;99.90;;;;;;5135851;27;19915;-74
2023/08/01 10:38:10;;;;;;;;;;;33.90;99.90;;;;;;5137326;27;19904;-76
2023/08/01 10:40:42;;;;;;;;;;;33.80;99.90;;;;;;5136746;27;19903;-75
2023/08/01 10:43:21;;;;;;;;;;;34.00;99.90;;;;;;5137075;27;19939;-76
2023/08/01 10:45:46;;;;;;;;;;;33.90;99.90;;;;;;5136658;27;19904;-76
2023/08/01 10:48:13;;;;;;;;;;;33.90;99.90;;;;;;5136526;27;20271;-75
2023/08/01 10:50:40;;;;;;;;;;;34.00;99.90;;;;;;5135089;27;19911;-75
2023/08/01 10:53:07;;;;;;;;;;;34.00;99.90;;;;;;5136415;27;19915;-75
2023/08/01 10:55:43;;;;;;;;;;;33.70;99.90;;;;;;5135112;27;20246;-75
2023/08/01 10:58:09;;;;;;;;;;;33.80;99.90;;;;;;5134994;27;19928;-75
2023/08/01 11:00:35;;;;;;;;;;;33.90;99.90;;;;;;5134745;27;19994;-76
2023/08/01 11:03:01;;;;;;;;;;;34.10;99.90;;;;;;5134734;27;20240;-74
2023/08/01 11:05:28;;;;;;;;;;;34.20;99.90;;;;;;5134586;27;19910;-75
2023/08/01 11:07:55;;;;;;;;;;;34.20;99.90;;;;;;5135898;27;19910;-75
2023/08/01 11:10:20;;;;;;;;;;;34.00;99.90;;;;;;5134539;27;19950;-74
2023/08/01 11:12:46;;;;;;;;;;;33.90;99.90;;;;;;5136320;27;19958;-75
2023/08/01 11:15:13;;;;;;;;;;;33.80;99.90;;;;;;5135632;27;19907;-76
2023/08/01 11:17:39;;;;;;;;;;;33.80;99.90;;;;;;5135833;27;19904;-76
2023/08/01 11:20:07;;;;;;;;;;;33.80;99.90;;;;;;5135713;27;19904;-76
2023/08/01 11:22:33;;;;;;;;;;;34.00;99.90;;;;;;5135728;27;19912;-75
2023/08/01 11:24:59;;;;;;;;;;;34.00;99.90;;;;;;5136315;27;19903;-76
2023/08/01 11:27:28;;;;;;;;;;;34.00;99.90;;;;;;5135944;27;20304;-75
2023/08/01 11:29:54;;;;;;;;;;;34.00;99.90;;;;;;5136266;27;20281;-76
2023/08/01 11:32:20;;;;;;;;;;;33.80;99.90;;;;;;5134831;27;19921;-76
2023/08/01 11:34:46;;;;;;;;;;;34.00;99.90;;;;;;5135048;27;19954;-75
2023/08/01 11:37:16;;;;;;;;;;;33.90;99.90;;;;;;5135350;27;19950;-76
2023/08/01 11:39:41;;;;;;;;;;;34.00;99.90;;;;;;5135600;27;20347;-75
2023/08/01 11:42:13;;;;;;;;;;;34.10;99.90;;;;;;5135066;27;19903;-74
2023/08/01 11:44:39;;;;;;;;;;;34.10;99.90;;;;;;5135343;27;19904;-74
2023/08/01 11:47:10;;;;;;;;;;;34.10;99.90;;;;;;5133699;27;19903;-75
2023/08/01 11:49:36;;;;;;;;;;;34.30;99.90;;;;;;5134840;27;19903;-75
2023/08/01 11:52:01;;;;;;;;;;;33.90;99.90;;;;;;5134512;27;19922;-74
2023/08/01 11:54:27;;;;;;;;;;;33.40;99.90;;;;;;5135228;27;20380;-75
2023/08/01 11:57:00;;;;;;;;;;;33.40;99.90;;;;;;5135172;27;19907;-75
2023/08/01 11:59:25;;;;;;;;;;;33.40;99.90;;;;;;5135497;27;20316;-75
2023/08/01 12:01:51;;;;;;;;;;;33.30;99.90;;;;;;5134651;27;19960;-75
2023/08/01 12:04:24;;;;;;;;;;;33.20;99.90;;;;;;5135302;27;20354;-74
2023/08/01 12:06:49;;;;;;;;;;;33.20;99.90;;;;;;5134915;27;19942;-75
2023/08/01 12:09:15;;;;;;;;;;;33.30;99.90;;;;;;5135324;27;19911;-77
2023/08/01 12:11:41;;;;;;;;;;;33.40;99.90;;;;;;5134491;27;19925;-74
2023/08/01 12:14:11;;;;;;;;;;;33.50;99.90;;;;;;5134795;27;20264;-73
2023/08/01 12:16:38;;;;;;;;;;;33.50;99.90;;;;;;5133432;27;19911;-74
2023/08/01 12:19:05;;;;;;;;;;;33.30;99.90;;;;;;5134586;27;19910;-74
2023/08/01 12:21:34;;;;;;;;;;;33.40;99.90;;;;;;5134585;27;19994;-74
2023/08/01 12:24:00;;;;;;;;;;;33.50;99.90;;;;;;5134913;27;20002;-74
2023/08/01 12:26:26;;;;;;;;;;;33.20;99.90;;;;;;5134623;27;20088;-73
2023/08/01 12:28:52;;;;;;;;;;;33.10;99.90;;;;;;5134717;27;19918;-75
2023/08/01 12:31:18;;;;;;;;;;;33.30;99.90;;;;;;5134259;27;19911;-75
2023/08/01 12:33:45;;;;;;;;;;;33.20;99.90;;;;;;5134367;27;19904;-75
2023/08/01 12:36:11;;;;;;;;;;;33.20;99.90;;;;;;5134156;27;19915;-75
2023/08/01 12:38:37;;;;;;;;;;;32.90;99.90;;;;;;5133220;27;20052;-75
2023/08/01 12:41:03;;;;;;;;;;;33.10;99.90;;;;;;5134443;27;19956;-76
2023/08/01 12:43:29;;;;;;;;;;;33.20;99.90;;;;;;5134226;27;19911;-75
2023/08/01 12:45:58;;;;;;;;;;;33.50;99.90;;;;;;5134378;27;19903;-75
2023/08/01 12:48:24;;;;;;;;;;;33.30;99.90;;;;;;5134121;27;19910;-75
2023/08/01 12:50:50;;;;;;;;;;;33.20;99.90;;;;;;5134645;27;19904;-75
2023/08/01 12:53:16;;;;;;;;;;;32.90;99.90;;;;;;5132694;27;19994;-75
2023/08/01 12:55:45;;;;;;;;;;;32.80;99.90;;;;;;5134146;27;20259;-75
2023/08/01 12:58:11;;;;;;;;;;;32.80;99.90;;;;;;5133984;27;19954;-75
2023/08/01 13:00:37;;;;;;;;;;;32.80;99.90;;;;;;5133881;27;19904;-75
2023/08/01 13:03:03;;;;;;;;;;;32.90;99.90;;;;;;5133954;27;19904;-76
2023/08/01 13:05:29;;;;;;;;;;;32.90;99.90;;;;;;5134556;27;19956;-75
2023/08/01 13:07:55;;;;;;;;;;;32.80;99.90;;;;;;5132447;27;20301;-74
2023/08/01 13:10:20;;;;;;;;;;;32.90;99.90;;;;;;5133898;27;19958;-75
2023/08/01 13:12:46;;;;;;;;;;;33.00;99.90;;;;;;5134293;27;20248;-76
2023/08/01 13:15:12;;;;;;;;;;;32.90;99.90;;;;;;5133799;27;19907;-74
2023/08/01 13:17:38;;;;;;;;;;;32.70;99.90;;;;;;5133720;27;20244;-75
2023/08/01 13:20:04;;;;;;;;;;;32.90;99.90;;;;;;5134400;27;19981;-74
2023/08/01 13:22:30;;;;;;;;;;;32.80;99.90;;;;;;5133888;27;19943;-76
2023/08/01 13:24:56;;;;;;;;;;;32.90;99.90;;;;;;5133952;28;19903;-76
2023/08/01 13:27:22;;;;;;;;;;;33.00;99.90;;;;;;5134276;27;19907;-75
2023/08/01 13:29:50;;;;;;;;;;;33.10;99.90;;;;;;5134023;27;19907;-75
2023/08/01 13:32:16;;;;;;;;;;;33.20;99.90;;;;;;5131972;28;19918;-74
2023/08/01 13:34:42;;;;;;;;;;;33.20;99.90;;;;;;5131775;28;20014;-74
2023/08/01 13:37:09;;;;;;;;;;;33.00;99.90;;;;;;5132053;28;19972;-74
2023/08/01 13:39:35;;;;;;;;;;;33.20;99.90;;;;;;5134035;27;19914;-74
2023/08/01 13:42:01;;;;;;;;;;;33.30;99.90;;;;;;5133727;27;19903;-74
2023/08/01 13:44:26;;;;;;;;;;;33.50;99.90;;;;;;5133763;27;19918;-74
2023/08/01 13:46:53;;;;;;;;;;;33.50;99.90;;;;;;5133652;28;19964;-75
2023/08/01 13:49:19;;;;;;;;;;;33.60;99.90;;;;;;5132226;28;19952;-74
2023/08/01 13:51:44;;;;;;;;;;;33.70;99.90;;;;;;5131921;28;19918;-76
2023/08/01 13:54:10;;;;;;;;;;;33.80;99.90;;;;;;5132040;28;19994;-75
2023/08/01 13:56:36;;;;;;;;;;;33.90;99.90;;;;;;5132133;28;19947;-75
2023/08/01 13:59:03;;;;;;;;;;;33.60;99.90;;;;;;5133744;27;19907;-75
2023/08/01 14:01:29;;;;;;;;;;;33.70;99.90;;;;;;5133330;27;19910;-74
2023/08/01 14:03:54;;;;;;;;;;;33.60;99.90;;;;;;5132014;28;19908;-76
2023/08/01 14:06:20;;;;;;;;;;;33.60;99.90;;;;;;5133451;28;19907;-75
2023/08/01 14:08:46;;;;;;;;;;;33.80;99.90;;;;;;5133675;28;19903;-74
2023/08/01 14:11:12;;;;;;;;;;;33.90;99.90;;;;;;5135058;27;19918;-75